createdAt,value
2022-10-06T00:02:19.330Z,6.75
2022-10-06T00:04:46.806Z,4.65
2022-10-06T00:07:14.586Z,4.60
2022-10-06T00:09:42.234Z,5.13
2022-10-06T00:12:09.636Z,5.13
2022-10-06T00:14:37.179Z,6.18
2022-10-06T00:17:04.193Z,5.78
2022-10-06T00:19:31.342Z,5.63
2022-10-06T00:21:58.032Z,7.00
2022-10-06T00:24:24.779Z,4.85
2022-10-06T00:26:51.452Z,6.78
2022-10-06T00:29:18.870Z,6.95
2022-10-06T00:31:45.830Z,6.60
2022-10-06T00:34:13.087Z,7.68
2022-10-06T00:36:40.176Z,5.05
2022-10-06T00:39:07.057Z,6.72
2022-10-06T00:41:34.050Z,5.13
2022-10-06T00:44:01.780Z,5.13
2022-10-06T00:46:45.506Z,5.35
2022-10-06T00:49:34.657Z,6.07
2022-10-06T00:52:08.103Z,6.35
2022-10-06T00:54:36.169Z,5.45
2022-10-06T00:57:04.706Z,5.50
2022-10-06T00:59:31.973Z,4.95
2022-10-06T01:02:07.614Z,3.63
2022-10-06T01:04:38.051Z,4.85
2022-10-06T01:07:04.958Z,8.63
2022-10-06T01:09:32.098Z,8.07
2022-10-06T01:12:03.135Z,4.93
2022-10-06T01:14:30.180Z,6.45
2022-10-06T01:17:07.772Z,6.50
2022-10-06T01:20:00.262Z,6.32
2022-10-06T01:22:40.140Z,6.13
2022-10-06T01:25:08.495Z,5.80
2022-10-06T01:27:39.108Z,7.70
2022-10-06T01:30:09.527Z,6.88
2022-10-06T01:32:39.061Z,4.03
2022-10-06T01:35:07.683Z,8.57
2022-10-06T01:37:34.723Z,6.00
2022-10-06T01:40:01.815Z,5.88
2022-10-06T01:42:31.863Z,5.03
2022-10-06T01:44:59.600Z,6.35
2022-10-06T01:47:26.443Z,6.43
2022-10-06T01:49:53.164Z,5.93
2022-10-06T01:52:20.459Z,4.80
2022-10-06T01:54:47.129Z,4.78
2022-10-06T01:57:14.717Z,5.65
2022-10-06T01:59:41.491Z,5.97
2022-10-06T02:02:08.087Z,4.80
2022-10-06T02:07:01.374Z,5.85
2022-10-06T02:09:28.322Z,7.05
2022-10-06T02:11:56.386Z,6.28
2022-10-06T02:14:23.022Z,6.68
2022-10-06T02:16:50.658Z,5.65
2022-10-06T02:19:17.529Z,5.30
2022-10-06T02:21:44.237Z,5.13
2022-10-06T02:24:10.991Z,5.90
2022-10-06T02:26:37.758Z,5.88
2022-10-06T02:29:04.802Z,5.07
2022-10-06T02:31:31.711Z,4.95
2022-10-06T02:33:58.999Z,4.90
2022-10-06T02:36:25.822Z,9.20
2022-10-06T02:38:52.570Z,6.70
2022-10-06T02:41:19.945Z,4.30
2022-10-06T02:43:46.588Z,6.63
2022-10-06T02:46:15.112Z,9.15
2022-10-06T02:48:48.096Z,4.45
2022-10-06T02:53:45.696Z,4.53
2022-10-06T02:56:17.663Z,6.45
2022-10-06T02:58:47.879Z,5.90
2022-10-06T03:01:24.074Z,4.05
2022-10-06T03:03:53.168Z,4.72
2022-10-06T03:06:22.392Z,6.13
2022-10-06T03:08:57.807Z,5.32
2022-10-06T03:11:36.668Z,6.32
2022-10-06T03:14:06.172Z,5.05
2022-10-06T03:16:41.502Z,5.60
2022-10-06T03:19:14.028Z,5.07
2022-10-06T03:21:44.365Z,6.53
2022-10-06T03:24:12.985Z,6.90
2022-10-06T03:26:47.557Z,6.72
2022-10-06T03:29:16.472Z,4.53
2022-10-06T03:31:48.031Z,5.00
2022-10-06T03:34:15.178Z,5.38
2022-10-06T03:36:44.173Z,5.20
2022-10-06T03:39:11.495Z,4.95
2022-10-06T03:41:39.354Z,4.63
2022-10-06T03:44:07.708Z,7.50
2022-10-06T03:46:37.074Z,4.88
2022-10-06T03:49:06.835Z,6.18
2022-10-06T03:51:39.152Z,6.50
2022-10-06T03:54:10.849Z,5.55
2022-10-06T03:56:41.072Z,5.72
2022-10-06T03:59:12.084Z,7.13
2022-10-06T04:01:43.050Z,5.30
2022-10-06T04:04:12.255Z,5.88
2022-10-06T04:06:42.706Z,5.50
2022-10-06T04:09:15.584Z,8.43
2022-10-06T04:11:44.402Z,5.13
2022-10-06T04:14:15.185Z,5.43
2022-10-06T04:16:47.998Z,5.20
2022-10-06T04:19:18.729Z,5.30
2022-10-06T04:21:49.134Z,7.97
2022-10-06T04:24:19.889Z,6.30
2022-10-06T04:26:49.116Z,7.55
2022-10-06T04:29:17.312Z,4.07
2022-10-06T04:31:46.998Z,5.22
2022-10-06T04:34:19.002Z,5.45
2022-10-06T04:36:46.716Z,5.47
2022-10-06T04:39:15.937Z,6.75
2022-10-06T04:41:47.315Z,6.60
2022-10-06T04:44:19.408Z,5.35
2022-10-06T04:46:46.862Z,5.43
2022-10-06T04:49:19.465Z,4.90
2022-10-06T04:51:49.791Z,4.93
2022-10-06T04:54:17.507Z,7.82
2022-10-06T04:56:44.950Z,6.57
2022-10-06T04:59:11.598Z,8.40
2022-10-06T05:01:40.959Z,6.20
2022-10-06T05:04:10.822Z,5.32
2022-10-06T05:06:41.294Z,6.57
2022-10-06T05:09:13.562Z,4.88
2022-10-06T05:11:48.241Z,5.35
2022-10-06T05:14:18.910Z,6.38
2022-10-06T05:16:48.233Z,8.18
2022-10-06T05:19:15.734Z,5.93
2022-10-06T05:21:42.766Z,6.60
2022-10-06T05:24:13.151Z,7.75
2022-10-06T05:26:39.996Z,7.93
2022-10-06T05:29:10.193Z,6.07
2022-10-06T05:31:39.065Z,7.45
2022-10-06T05:34:07.603Z,5.93
2022-10-06T05:36:35.084Z,7.82
2022-10-06T05:39:03.804Z,5.57
2022-10-06T05:41:37.874Z,6.25
2022-10-06T05:44:07.175Z,8.65
2022-10-06T05:46:35.886Z,11.00
2022-10-06T05:49:09.143Z,8.40
2022-10-06T05:51:40.093Z,6.97
2022-10-06T05:54:15.108Z,9.43
2022-10-06T05:56:42.491Z,6.50
2022-10-06T05:59:09.084Z,6.65
2022-10-06T06:01:40.932Z,7.15
2022-10-06T06:04:15.214Z,6.93
2022-10-06T06:06:54.738Z,6.47
2022-10-06T06:09:28.140Z,7.85
2022-10-06T06:12:02.794Z,6.63
2022-10-06T06:14:54.884Z,5.70
2022-10-06T06:17:25.170Z,9.77
2022-10-06T06:19:51.775Z,6.65
2022-10-06T06:24:46.879Z,5.07
2022-10-06T06:27:14.544Z,6.97
2022-10-06T06:29:41.277Z,6.82
2022-10-06T06:32:09.600Z,5.35
2022-10-06T06:34:36.792Z,4.72
2022-10-06T06:37:08.547Z,5.22
2022-10-06T06:39:38.545Z,5.40
2022-10-06T06:42:08.459Z,4.72
2022-10-06T06:44:38.721Z,3.90
2022-10-06T06:47:12.948Z,5.45
2022-10-06T06:49:39.627Z,4.45
2022-10-06T06:52:08.464Z,4.15
2022-10-06T06:54:37.572Z,3.60
2022-10-06T06:57:09.816Z,4.30
2022-10-06T06:59:38.169Z,3.25
2022-10-06T07:02:06.855Z,6.57
2022-10-06T07:04:37.572Z,3.35
2022-10-06T07:07:06.219Z,5.03
2022-10-06T07:09:35.889Z,4.15
2022-10-06T07:12:06.713Z,4.07
2022-10-06T07:14:33.407Z,3.50
2022-10-06T07:17:20.032Z,4.28
2022-10-06T07:20:08.011Z,8.40
2022-10-06T07:22:53.986Z,3.22
2022-10-06T07:25:27.674Z,3.25
2022-10-06T07:27:57.238Z,5.55
2022-10-06T07:30:31.549Z,4.20
2022-10-06T07:33:05.229Z,4.32
2022-10-06T07:35:33.103Z,3.78
2022-10-06T07:38:02.256Z,2.78
2022-10-06T07:40:31.154Z,7.55
2022-10-06T07:42:58.302Z,3.50
2022-10-06T07:45:38.986Z,3.75
2022-10-06T07:48:11.308Z,3.97
2022-10-06T07:50:39.432Z,3.75
2022-10-06T07:53:08.779Z,5.47
2022-10-06T07:55:41.306Z,5.03
2022-10-06T07:58:18.436Z,4.43
2022-10-06T08:00:46.738Z,5.97
2022-10-06T08:03:18.073Z,4.07
2022-10-06T08:05:49.925Z,4.68
2022-10-06T08:08:17.028Z,4.15
2022-10-06T08:10:51.870Z,4.97
2022-10-06T08:13:18.626Z,4.53
2022-10-06T08:15:45.457Z,4.07
2022-10-06T08:18:27.248Z,5.45
2022-10-06T08:20:58.732Z,5.28
2022-10-06T08:23:25.763Z,4.53
2022-10-06T08:25:56.262Z,5.63
2022-10-06T08:28:24.378Z,4.38
2022-10-06T08:30:52.396Z,4.05
2022-10-06T08:33:21.439Z,6.95
2022-10-06T08:35:51.686Z,3.92
2022-10-06T08:38:18.557Z,4.65
2022-10-06T08:40:47.052Z,5.53
2022-10-06T08:43:19.644Z,3.58
2022-10-06T08:45:47.627Z,5.20
2022-10-06T08:48:20.699Z,4.28
2022-10-06T08:50:50.311Z,4.18
2022-10-06T08:53:29.542Z,4.95
2022-10-06T08:56:18.274Z,3.40
2022-10-06T08:58:57.548Z,2.75
2022-10-06T09:01:27.177Z,3.25
2022-10-06T09:03:58.071Z,3.28
2022-10-06T09:06:49.149Z,5.38
2022-10-06T09:09:39.814Z,3.35
2022-10-06T09:12:35.392Z,3.83
2022-10-06T09:15:09.891Z,6.10
2022-10-06T09:17:42.391Z,3.47
2022-10-06T09:20:20.806Z,2.35
2022-10-06T09:22:51.090Z,5.13
2022-10-06T09:25:22.366Z,4.88
2022-10-06T09:27:53.735Z,3.47
2022-10-06T09:30:20.419Z,5.05
2022-10-06T09:32:49.588Z,4.07
2022-10-06T09:35:19.911Z,11.13
2022-10-06T09:38:08.617Z,2.70
2022-10-06T09:40:52.933Z,2.30
2022-10-06T09:43:28.095Z,6.05
2022-10-06T09:45:56.537Z,3.05
2022-10-06T09:48:27.147Z,3.05
2022-10-06T09:51:26.752Z,4.72
2022-10-06T09:54:11.030Z,2.58
2022-10-06T09:59:21.291Z,5.05
2022-10-06T10:01:55.688Z,2.03
2022-10-06T10:04:26.690Z,2.25
2022-10-06T10:06:53.928Z,3.00
2022-10-06T10:09:27.302Z,5.38
2022-10-06T10:12:30.197Z,3.83
2022-10-06T10:14:59.932Z,3.22
2022-10-06T10:17:29.709Z,5.50
2022-10-06T10:19:56.656Z,4.25
2022-10-06T10:22:31.073Z,3.17
2022-10-06T10:25:19.461Z,3.08
2022-10-06T10:28:17.132Z,5.63
2022-10-06T10:31:09.567Z,6.13
2022-10-06T10:33:46.168Z,3.30
2022-10-06T10:36:33.071Z,4.22
2022-10-06T10:39:01.478Z,9.45
2022-10-06T10:41:37.750Z,10.18
2022-10-06T10:44:22.059Z,9.85
2022-10-06T10:46:54.880Z,9.15
2022-10-06T10:49:32.232Z,12.05
2022-10-06T10:52:09.840Z,13.27
2022-10-06T10:55:01.718Z,12.48
2022-10-06T10:57:37.090Z,11.75
2022-10-06T11:00:12.679Z,13.70
2022-10-06T11:02:40.544Z,11.57
2022-10-06T11:05:17.347Z,15.57
2022-10-06T11:07:56.655Z,13.48
2022-10-06T11:10:27.142Z,12.07
2022-10-06T11:13:00.110Z,13.68
2022-10-06T11:15:54.727Z,14.02
2022-10-06T11:18:41.850Z,14.68
2022-10-06T11:21:27.543Z,12.65
2022-10-06T11:24:07.395Z,10.93
2022-10-06T11:27:25.347Z,12.20
2022-10-06T11:30:15.578Z,9.20
2022-10-06T11:33:07.111Z,10.02
2022-10-06T11:35:37.128Z,6.50
2022-10-06T11:38:23.199Z,7.40
2022-10-06T11:41:18.459Z,8.40
2022-10-06T11:43:54.417Z,9.82
2022-10-06T11:46:44.046Z,6.90
2022-10-06T11:49:29.732Z,7.25
2022-10-06T11:52:08.284Z,6.18
2022-10-06T11:54:44.783Z,6.18
2022-10-06T11:57:29.321Z,6.03
2022-10-06T12:00:17.481Z,4.85
2022-10-06T12:02:46.184Z,7.10
2022-10-06T12:05:47.140Z,6.05
2022-10-06T12:08:00.684Z,6.90
2022-10-06T12:10:27.342Z,5.50
2022-10-06T12:13:11.438Z,7.43
2022-10-06T12:17:08.685Z,6.63
2022-10-06T12:18:46.762Z,7.93
2022-10-06T12:21:23.293Z,9.63
2022-10-06T12:24:25.486Z,6.47
2022-10-06T12:27:22.118Z,7.15
2022-10-06T12:30:16.875Z,6.57
2022-10-06T12:32:58.408Z,6.88
2022-10-06T12:35:41.355Z,6.55
2022-10-06T12:38:33.702Z,5.43
2022-10-06T12:41:01.923Z,6.43
2022-10-06T12:43:34.536Z,6.60
2022-10-06T12:46:16.395Z,4.55
2022-10-06T12:48:55.516Z,5.30
2022-10-06T12:51:24.541Z,5.30
2022-10-06T12:54:05.373Z,5.85
2022-10-06T12:56:59.254Z,6.88
2022-10-06T12:59:28.507Z,5.13
2022-10-06T13:01:58.851Z,5.38
2022-10-06T13:04:36.198Z,8.15
2022-10-06T13:07:25.030Z,4.75
2022-10-06T13:09:55.339Z,6.07
2022-10-06T13:12:24.692Z,5.20
2022-10-06T13:15:18.858Z,4.78
2022-10-06T13:17:51.258Z,5.55
2022-10-06T13:23:03.105Z,6.43
2022-10-06T13:25:54.741Z,4.57
2022-10-06T13:28:45.717Z,3.65
2022-10-06T13:31:33.447Z,6.22
2022-10-06T13:34:13.606Z,6.45
2022-10-06T13:36:47.546Z,4.00
2022-10-06T13:39:19.745Z,5.97
2022-10-06T13:41:51.247Z,4.25
2022-10-06T13:44:53.888Z,4.28
2022-10-06T13:47:24.629Z,6.55
2022-10-06T13:49:51.436Z,7.72
2022-10-06T13:52:23.377Z,4.40
2022-10-06T13:54:58.061Z,6.30
2022-10-06T13:58:06.522Z,6.53
2022-10-06T14:00:56.578Z,7.43
2022-10-06T14:06:19.129Z,6.45
2022-10-06T14:08:51.774Z,4.68
2022-10-06T14:11:24.741Z,4.70
2022-10-06T14:13:53.712Z,6.88
2022-10-06T14:16:23.492Z,6.40
2022-10-06T14:21:41.413Z,6.03
2022-10-06T14:24:17.145Z,6.97
2022-10-06T14:26:45.371Z,5.10
2022-10-06T14:29:16.435Z,4.78
2022-10-06T14:31:44.624Z,5.82
2022-10-06T14:34:16.653Z,3.58
2022-10-06T14:36:46.515Z,7.18
2022-10-06T14:39:15.339Z,3.97
2022-10-06T14:41:42.156Z,3.90
2022-10-06T14:44:12.137Z,5.03
2022-10-06T14:46:44.967Z,4.32
2022-10-06T14:49:15.948Z,4.18
2022-10-06T14:51:44.097Z,5.50
2022-10-06T14:54:12.088Z,2.67
2022-10-06T14:56:40.796Z,3.38
2022-10-06T14:59:10.184Z,4.75
2022-10-06T15:01:40.318Z,3.45
2022-10-06T15:04:13.249Z,5.38
2022-10-06T15:06:59.277Z,3.40
2022-10-06T15:09:29.620Z,4.20
2022-10-06T15:11:57.454Z,6.20
2022-10-06T15:14:24.096Z,3.45
2022-10-06T15:16:51.687Z,5.13
2022-10-06T15:19:18.879Z,7.68
2022-10-06T15:21:45.661Z,5.45
2022-10-06T15:24:15.066Z,5.05
2022-10-06T15:27:01.447Z,5.22
2022-10-06T15:29:28.840Z,5.13
2022-10-06T15:31:55.623Z,4.20
2022-10-06T15:34:27.736Z,6.57
2022-10-06T15:36:56.155Z,4.25
2022-10-06T15:39:24.816Z,3.80
2022-10-06T15:41:52.652Z,5.43
2022-10-06T15:44:26.059Z,5.57
2022-10-06T15:46:58.176Z,5.18
2022-10-06T15:49:32.992Z,3.95
2022-10-06T15:52:03.693Z,4.07
2022-10-06T15:54:39.527Z,4.35
2022-10-06T15:57:15.011Z,4.63
2022-10-06T15:59:44.824Z,5.90
2022-10-06T16:02:16.768Z,3.58
2022-10-06T16:04:44.824Z,5.25
2022-10-06T16:07:20.719Z,4.15
2022-10-06T16:09:50.267Z,5.55
2022-10-06T16:12:20.362Z,5.10
2022-10-06T16:14:47.839Z,4.45
2022-10-06T16:17:15.346Z,3.72
2022-10-06T16:19:42.252Z,5.22
2022-10-06T16:22:12.048Z,5.53
2022-10-06T16:24:38.952Z,5.15
2022-10-06T16:27:06.383Z,5.20
2022-10-06T16:29:33.045Z,3.67
2022-10-06T16:31:59.690Z,5.10
2022-10-06T16:34:26.951Z,4.85
2022-10-06T16:36:53.698Z,3.90
2022-10-06T16:39:22.267Z,4.35
2022-10-06T16:41:50.102Z,4.13
2022-10-06T16:44:17.486Z,4.68
2022-10-06T16:46:45.346Z,6.22
2022-10-06T16:49:12.813Z,4.22
2022-10-06T16:51:42.347Z,5.55
2022-10-06T16:54:11.392Z,4.45
2022-10-06T16:56:40.969Z,4.88
2022-10-06T16:59:29.568Z,5.60
2022-10-06T17:01:56.203Z,7.75
2022-10-06T17:04:24.822Z,7.90
2022-10-06T17:06:56.048Z,5.47
2022-10-06T17:09:25.362Z,6.50
2022-10-06T17:11:54.810Z,7.75
2022-10-06T17:14:21.655Z,9.95
2022-10-06T17:16:50.814Z,7.85
2022-10-06T17:19:19.628Z,7.90
2022-10-06T17:21:48.791Z,8.82
2022-10-06T17:24:18.239Z,9.98
2022-10-06T17:26:49.767Z,12.45
2022-10-06T17:29:19.214Z,14.40
2022-10-06T17:31:47.867Z,15.00
2022-10-06T17:34:20.691Z,18.23
2022-10-06T17:36:49.965Z,17.92
2022-10-06T17:39:19.093Z,17.83
2022-10-06T17:41:47.147Z,19.88
2022-10-06T17:44:23.017Z,15.25
2022-10-06T17:46:52.670Z,18.13
2022-10-06T17:49:20.964Z,15.38
2022-10-06T17:51:49.376Z,11.75
2022-10-06T17:54:19.809Z,15.50
2022-10-06T17:56:51.552Z,11.45
2022-10-06T17:59:32.035Z,11.40
2022-10-06T18:02:01.449Z,13.77
2022-10-06T18:04:29.017Z,11.00
2022-10-06T18:06:56.532Z,10.88
2022-10-06T18:09:23.823Z,11.35
2022-10-06T18:11:56.055Z,9.88
2022-10-06T18:14:28.546Z,12.95
2022-10-06T18:17:00.826Z,12.48
2022-10-06T18:19:34.238Z,12.52
2022-10-06T18:22:10.301Z,11.02
2022-10-06T18:24:38.208Z,13.10
2022-10-06T18:27:06.563Z,12.68
2022-10-06T18:29:35.873Z,13.18
2022-10-06T18:32:53.416Z,10.98
2022-10-06T18:37:38.461Z,13.40
2022-10-06T18:40:11.036Z,14.80
2022-10-06T18:42:39.130Z,13.82
2022-10-06T18:45:26.094Z,14.00
2022-10-06T18:48:11.209Z,14.15
2022-10-06T18:50:37.910Z,13.98
2022-10-06T18:53:04.689Z,14.38
2022-10-06T18:55:32.316Z,14.10
2022-10-06T18:57:59.309Z,19.25
2022-10-06T19:02:56.229Z,14.80
2022-10-06T19:05:23.674Z,16.40
2022-10-06T19:07:52.511Z,18.33
2022-10-06T19:10:19.472Z,18.25
2022-10-06T19:12:46.681Z,16.92
2022-10-06T19:15:17.829Z,13.85
2022-10-06T19:17:46.891Z,15.43
2022-10-06T19:20:13.530Z,18.70
2022-10-06T19:25:06.848Z,18.83
2022-10-06T19:27:36.207Z,17.73
2022-10-06T19:30:03.058Z,15.30
2022-10-06T19:32:33.306Z,13.70
2022-10-06T19:35:00.711Z,13.27
2022-10-06T19:37:29.843Z,11.43
2022-10-06T19:39:57.815Z,13.55
2022-10-06T19:42:43.118Z,11.70
2022-10-06T19:45:12.190Z,12.63
2022-10-06T19:47:40.164Z,11.68
2022-10-06T19:50:12.227Z,9.73
2022-10-06T19:52:40.730Z,10.23
2022-10-06T19:55:07.689Z,13.35
2022-10-06T19:57:35.605Z,12.82
2022-10-06T20:00:02.453Z,10.68
2022-10-06T20:02:42.497Z,10.65
2022-10-06T20:05:16.732Z,10.57
2022-10-06T20:07:46.105Z,11.30
2022-10-06T20:10:13.454Z,12.20
2022-10-06T20:12:41.591Z,12.07
2022-10-06T20:15:09.918Z,11.60
2022-10-06T20:17:37.119Z,11.45
2022-10-06T20:20:04.352Z,11.52
2022-10-06T20:22:31.801Z,12.32
2022-10-06T20:24:58.528Z,11.85
2022-10-06T20:27:25.208Z,12.10
2022-10-06T20:32:18.227Z,12.57
2022-10-06T20:37:11.303Z,13.52
2022-10-06T20:42:36.893Z,13.00
2022-10-06T20:47:30.067Z,13.23
2022-10-06T20:49:57.026Z,16.35
2022-10-06T20:52:24.258Z,17.13
2022-10-06T20:54:51.234Z,13.00
2022-10-06T20:57:17.967Z,15.93
2022-10-06T20:59:46.157Z,12.88
2022-10-06T21:02:13.421Z,14.57
2022-10-06T21:04:43.570Z,15.88
2022-10-06T21:07:11.236Z,11.32
2022-10-06T21:09:37.865Z,13.93
2022-10-06T21:14:31.824Z,12.63
2022-10-06T21:16:58.446Z,12.88
2022-10-06T21:21:53.848Z,11.77
2022-10-06T21:24:22.241Z,10.00
2022-10-06T21:26:49.757Z,10.23
2022-10-06T21:29:16.901Z,13.70
2022-10-06T21:31:44.902Z,10.20
2022-10-06T21:34:14.377Z,12.80
2022-10-06T21:36:43.341Z,9.45
2022-10-06T21:39:11.120Z,8.55
2022-10-06T21:41:39.368Z,12.48
2022-10-06T21:44:10.276Z,9.48
2022-10-06T21:46:54.798Z,10.80
2022-10-06T21:49:23.281Z,11.18
2022-10-06T21:51:52.539Z,10.93
2022-10-06T21:54:20.308Z,11.40
2022-10-06T21:56:47.676Z,12.18
2022-10-06T21:59:14.656Z,13.75
2022-10-06T22:01:43.621Z,14.23
2022-10-06T22:04:12.741Z,14.30
2022-10-06T22:06:39.583Z,13.75
2022-10-06T22:09:09.434Z,13.52
2022-10-06T22:11:38.679Z,10.77
2022-10-06T22:14:07.800Z,12.32
2022-10-06T22:16:36.488Z,11.48
2022-10-06T22:19:05.986Z,14.05
2022-10-06T22:21:37.057Z,14.93
2022-10-06T22:24:06.853Z,16.10
2022-10-06T22:26:37.377Z,11.55
2022-10-06T22:29:08.477Z,13.02
2022-10-06T22:31:38.275Z,12.15
2022-10-06T22:34:06.039Z,11.15
2022-10-06T22:36:33.806Z,12.52
2022-10-06T22:39:01.023Z,14.70
2022-10-06T22:41:28.040Z,15.07
2022-10-06T22:43:59.780Z,14.45
2022-10-06T22:46:32.104Z,15.68
2022-10-06T22:48:59.478Z,12.68
2022-10-06T22:51:26.523Z,13.40
2022-10-06T22:53:59.020Z,11.73
2022-10-06T22:56:27.486Z,11.95
2022-10-06T22:58:54.292Z,14.02
2022-10-06T23:01:21.199Z,11.23
2022-10-06T23:03:47.983Z,13.88
2022-10-06T23:06:16.388Z,13.48
2022-10-06T23:08:43.527Z,14.80
2022-10-06T23:11:13.929Z,10.82
2022-10-06T23:13:43.210Z,12.65
2022-10-06T23:16:13.074Z,12.00
2022-10-06T23:18:42.072Z,12.52
2022-10-06T23:21:11.238Z,10.80
2022-10-06T23:23:37.955Z,14.20
2022-10-06T23:28:32.899Z,14.02
2022-10-06T23:30:59.730Z,12.07
2022-10-06T23:33:29.524Z,11.45
2022-10-06T23:36:01.529Z,12.23
2022-10-06T23:38:28.637Z,13.90
2022-10-06T23:40:55.684Z,15.02
2022-10-06T23:43:23.397Z,13.88
2022-10-06T23:45:50.529Z,13.73
2022-10-06T23:48:17.751Z,13.93
2022-10-06T23:50:58.579Z,13.00
2022-10-06T23:53:25.772Z,14.38
2022-10-06T23:55:52.722Z,15.73
2022-10-06T23:58:20.583Z,13.52
